Time;durP1;ratioP1;P1;durP2;ratioP2;P2;SDS_P1;SDS_P2;PMS_P1;PMS_P2;Temp;Humidity;BMP_temperature;BMP_pressure;BME280_temperature;BME280_humidity;BME280_pressure;Samples;Min_cycle;Max_cycle;Signal;HPM_P1;HPM_P2
2022/10/07 00:01:12;;;;;;;1.10;0.40;;;9.60;82.10;;;;;;4879441;29;20060;-78
2022/10/07 00:03:39;;;;;;;1.23;0.50;;;9.60;82.00;;;;;;4895676;29;20049;-79
2022/10/07 00:06:14;;;;;;;0.40;0.40;;;9.70;81.90;;;;;;4881388;29;20040;-78
2022/10/07 00:08:43;;;;;;;1.58;0.40;;;9.70;81.80;;;;;;4882552;29;20040;-79
2022/10/07 00:11:12;;;;;;;0.68;0.38;;;9.70;81.80;;;;;;4898706;29;20483;-79
2022/10/07 00:13:40;;;;;;;0.43;0.40;;;9.70;81.80;;;;;;4898656;29;20131;-78
2022/10/07 00:16:10;;;;;;;0.45;0.40;;;9.80;81.90;;;;;;4882351;29;20078;-78
2022/10/07 00:18:36;;;;;;;0.43;0.40;;;9.80;81.80;;;;;;4899339;29;20107;-79
2022/10/07 00:21:05;;;;;;;1.05;0.40;;;9.80;81.70;;;;;;4898897;29;20044;-78
2022/10/07 00:23:31;;;;;;;0.30;0.25;;;10.00;81.90;;;;;;4898417;29;20055;-78
2022/10/07 00:26:00;;;;;;;2.30;0.47;;;9.90;81.70;;;;;;4898976;29;20069;-78
2022/10/07 00:28:29;;;;;;;0.82;0.40;;;9.90;81.80;;;;;;4897420;29;20041;-79
2022/10/07 00:30:58;;;;;;;0.63;0.47;;;9.90;81.80;;;;;;4881923;29;20084;-79
2022/10/07 00:33:23;;;;;;;1.25;0.50;;;9.90;81.70;;;;;;4881916;29;20108;-79
2022/10/07 00:35:49;;;;;;;0.98;0.40;;;9.80;81.80;;;;;;4898568;29;20483;-79
2022/10/07 00:38:15;;;;;;;2.17;0.50;;;9.90;82.00;;;;;;4898349;29;20382;-79
2022/10/07 00:40:41;;;;;;;0.52;0.50;;;10.00;82.00;;;;;;4898351;29;20060;-78
2022/10/07 00:43:23;;;;;;;2.58;0.80;;;10.10;81.90;;;;;;4898219;29;20043;-78
2022/10/07 00:45:49;;;;;;;0.50;0.30;;;9.80;81.90;;;;;;4881319;29;20047;-78
2022/10/07 00:48:21;;;;;;;0.40;0.35;;;10.00;82.00;;;;;;4898009;29;20072;-79
2022/10/07 00:50:49;;;;;;;0.57;0.43;;;10.00;82.00;;;;;;4896343;29;20411;-78
2022/10/07 00:53:16;;;;;;;1.00;0.40;;;10.00;82.00;;;;;;4896546;29;20499;-78
2022/10/07 00:55:42;;;;;;;0.88;0.30;;;10.00;82.00;;;;;;4865492;29;20079;-79
2022/10/07 00:58:08;;;;;;;1.10;0.47;;;10.10;82.00;;;;;;4897875;29;20036;-79
2022/10/07 01:00:35;;;;;;;0.40;0.40;;;10.10;81.90;;;;;;4881766;29;21043;-78
2022/10/07 01:03:01;;;;;;;1.13;0.30;;;10.00;81.80;;;;;;4886462;29;20041;-79
2022/10/07 01:05:28;;;;;;;0.40;0.40;;;10.00;82.00;;;;;;4860932;29;20473;-79
2022/10/07 01:07:54;;;;;;;0.90;0.30;;;10.00;82.10;;;;;;4860444;29;20068;-78
2022/10/07 01:10:21;;;;;;;0.77;0.40;;;9.90;82.20;;;;;;4844081;29;20049;-79
2022/10/07 01:13:13;;;;;;;0.35;0.35;;;9.90;82.30;;;;;;4859123;29;20526;-79
2022/10/07 01:16:02;;;;;;;0.30;0.30;;;9.80;82.50;;;;;;4859864;29;20030;-79
2022/10/07 01:18:48;;;;;;;0.50;0.40;;;9.80;82.70;;;;;;4860232;29;20041;-78
2022/10/07 01:21:33;;;;;;;0.22;0.22;;;9.70;82.80;;;;;;4843809;29;20038;-79
2022/10/07 01:24:19;;;;;;;0.30;0.30;;;9.70;82.90;;;;;;4829366;29;20132;-79
2022/10/07 01:27:00;;;;;;;0.45;0.40;;;9.60;83.10;;;;;;4859383;29;20042;-79
2022/10/07 01:29:54;;;;;;;1.45;0.30;;;9.60;83.20;;;;;;4860400;29;20102;-79
2022/10/07 01:32:32;;;;;;;0.20;0.20;;;9.50;83.30;;;;;;4859573;29;20068;-79
2022/10/07 01:35:00;;;;;;;0.47;0.40;;;9.50;83.30;;;;;;4858988;29;20099;-79
2022/10/07 01:37:34;;;;;;;0.73;0.30;;;9.50;83.40;;;;;;4859537;29;20038;-79
2022/10/07 01:40:08;;;;;;;0.60;0.40;;;9.50;83.60;;;;;;4878742;29;20044;-79
2022/10/07 01:42:35;;;;;;;0.70;0.45;;;9.30;83.60;;;;;;4897658;29;20040;-79
2022/10/07 01:45:02;;;;;;;0.82;0.50;;;9.40;83.70;;;;;;4897406;29;20185;-79
2022/10/07 01:47:28;;;;;;;0.88;0.47;;;9.30;83.80;;;;;;4865320;29;20044;-79
2022/10/07 01:49:54;;;;;;;1.98;0.45;;;9.20;83.80;;;;;;4897177;29;20189;-79
2022/10/07 01:52:44;;;;;;;0.20;0.20;;;9.20;84.00;;;;;;4897291;29;20049;-79
2022/10/07 01:55:36;;;;;;;1.17;0.60;;;9.20;84.10;;;;;;4876352;29;20079;-79
2022/10/07 01:58:19;;;;;;;;;;;9.20;84.10;;;;;;4860615;29;20048;-79
2022/10/07 02:00:50;;;;;;;0.50;0.32;;;9.20;84.00;;;;;;4860038;29;19908;-79
2022/10/07 02:03:38;;;;;;;0.30;0.30;;;9.10;84.00;;;;;;4858864;29;20030;-78
2022/10/07 02:06:39;;;;;;;0.70;0.30;;;9.10;84.10;;;;;;4843989;29;20033;-78
2022/10/07 02:09:22;;;;;;;0.13;0.13;;;9.00;84.10;;;;;;4859758;29;20038;-78
2022/10/07 02:11:56;;;;;;;0.20;0.20;;;9.10;84.20;;;;;;4859640;29;20075;-78
2022/10/07 02:14:28;;;;;;;1.25;0.30;;;9.00;84.20;;;;;;4873835;29;20457;-78
2022/10/07 02:17:09;;;;;;;0.73;0.20;;;9.00;84.20;;;;;;4857639;29;20042;-78
2022/10/07 02:19:39;;;;;;;0.63;0.40;;;9.00;84.30;;;;;;4842182;29;20034;-79
2022/10/07 02:22:08;;;;;;;0.40;0.40;;;8.90;84.20;;;;;;4857006;29;20049;-79
2022/10/07 02:24:36;;;;;;;0.50;0.40;;;9.00;84.30;;;;;;4859587;29;20093;-79
2022/10/07 02:27:08;;;;;;;0.65;0.45;;;9.00;84.60;;;;;;4866240;29;20068;-79
2022/10/07 02:29:36;;;;;;;1.05;0.50;;;9.00;84.40;;;;;;4878917;29;20112;-79
2022/10/07 02:32:06;;;;;;;0.45;0.40;;;9.00;84.40;;;;;;4895822;29;20076;-79
2022/10/07 02:34:34;;;;;;;1.02;0.47;;;9.00;84.40;;;;;;4896727;29;20048;-79
2022/10/07 02:37:05;;;;;;;0.85;0.30;;;9.00;84.30;;;;;;4845581;29;20076;-78
2022/10/07 02:39:31;;;;;;;0.40;0.40;;;9.00;84.30;;;;;;4859168;29;20096;-79
2022/10/07 02:42:08;;;;;;;0.70;0.40;;;8.90;84.30;;;;;;4857069;29;20073;-79
2022/10/07 02:44:53;;;;;;;0.90;0.50;;;8.90;84.40;;;;;;4845352;29;20044;-79
2022/10/07 02:47:30;;;;;;;0.30;0.30;;;8.80;84.40;;;;;;4839089;29;20069;-79
2022/10/07 02:50:00;;;;;;;0.68;0.40;;;8.80;84.50;;;;;;4839129;29;20091;-78
2022/10/07 02:52:30;;;;;;;0.45;0.30;;;8.80;84.60;;;;;;4823704;29;20060;-79
2022/10/07 02:55:05;;;;;;;0.40;0.35;;;8.90;84.60;;;;;;4887891;29;20047;-79
2022/10/07 02:57:36;;;;;;;0.10;0.10;;;8.80;84.60;;;;;;4857882;29;20045;-78
2022/10/07 03:00:04;;;;;;;0.38;0.30;;;8.80;84.70;;;;;;4841661;29;20054;-78
2022/10/07 03:02:39;;;;;;;0.40;0.30;;;8.70;84.70;;;;;;4842753;29;20038;-79
2022/10/07 03:05:07;;;;;;;1.08;0.50;;;8.70;84.80;;;;;;4842377;29;20138;-78
2022/10/07 03:07:34;;;;;;;0.50;0.40;;;8.70;84.80;;;;;;4841201;29;20853;-79
2022/10/07 03:10:00;;;;;;;0.45;0.40;;;8.70;84.80;;;;;;4856504;29;20054;-79
2022/10/07 03:12:27;;;;;;;0.40;0.30;;;8.70;84.80;;;;;;4852442;29;20133;-79
2022/10/07 03:14:53;;;;;;;0.50;0.40;;;8.70;84.80;;;;;;4859549;29;20141;-78
2022/10/07 03:17:19;;;;;;;0.85;0.35;;;8.60;84.90;;;;;;4857406;29;20136;-78
2022/10/07 03:19:45;;;;;;;0.20;0.20;;;8.60;84.90;;;;;;4842228;29;20045;-78
2022/10/07 03:22:11;;;;;;;0.82;0.50;;;8.60;84.90;;;;;;4842135;29;20457;-78
2022/10/07 03:24:37;;;;;;;0.30;0.30;;;8.60;84.90;;;;;;4842353;29;20136;-78
2022/10/07 03:27:06;;;;;;;0.28;0.28;;;8.70;85.00;;;;;;4841866;29;20136;-79
2022/10/07 03:29:34;;;;;;;0.43;0.20;;;8.70;85.00;;;;;;4827209;29;20967;-79
2022/10/07 03:32:00;;;;;;;0.20;0.20;;;8.60;84.90;;;;;;4841825;29;20041;-79
2022/10/07 03:34:27;;;;;;;1.00;0.63;;;8.60;84.90;;;;;;4842110;29;20085;-78
2022/10/07 03:36:54;;;;;;;0.20;0.20;;;8.60;84.90;;;;;;4842288;29;20029;-78
2022/10/07 03:39:20;;;;;;;0.40;0.40;;;8.60;84.90;;;;;;4842136;29;20370;-78
2022/10/07 03:41:47;;;;;;;0.40;0.20;;;8.60;85.00;;;;;;4845537;29;20037;-79
2022/10/07 03:44:13;;;;;;;0.90;0.40;;;8.60;85.00;;;;;;4851705;29;20036;-78
2022/10/07 03:46:40;;;;;;;0.40;0.40;;;8.60;85.10;;;;;;4866413;29;20101;-79
2022/10/07 03:49:06;;;;;;;0.77;0.30;;;8.60;85.00;;;;;;4866959;29;20472;-79
2022/10/07 03:51:32;;;;;;;0.30;0.30;;;8.70;85.10;;;;;;4866980;29;20500;-78
2022/10/07 03:53:58;;;;;;;0.20;0.20;;;8.70;85.10;;;;;;4828616;29;20102;-79
2022/10/07 03:56:24;;;;;;;0.20;0.13;;;8.70;85.10;;;;;;4843782;29;20041;-78
2022/10/07 03:58:51;;;;;;;0.22;0.20;;;8.60;85.00;;;;;;4828541;29;20061;-79
2022/10/07 04:01:17;;;;;;;0.47;0.35;;;8.60;85.00;;;;;;4844177;29;20132;-79
2022/10/07 04:03:44;;;;;;;0.40;0.40;;;8.60;85.10;;;;;;4829131;29;20173;-79
2022/10/07 04:06:10;;;;;;;0.25;0.20;;;8.60;85.10;;;;;;4828919;29;20165;-79
2022/10/07 04:08:37;;;;;;;0.30;0.30;;;8.60;85.20;;;;;;4829032;29;20057;-79
2022/10/07 04:11:03;;;;;;;0.30;0.30;;;8.60;85.20;;;;;;4829529;29;20053;-78
2022/10/07 04:13:30;;;;;;;0.45;0.20;;;8.60;85.20;;;;;;4828920;29;20557;-79
2022/10/07 04:15:56;;;;;;;0.82;0.40;;;8.50;85.10;;;;;;4828884;29;20094;-78
2022/10/07 04:18:22;;;;;;;0.32;0.20;;;8.60;85.20;;;;;;4828503;29;20128;-79
2022/10/07 04:20:48;;;;;;;0.28;0.20;;;8.60;85.30;;;;;;4828838;29;20033;-79
2022/10/07 04:23:15;;;;;;;0.52;0.40;;;8.70;85.30;;;;;;4828858;29;20038;-79
2022/10/07 04:25:42;;;;;;;0.40;0.40;;;8.60;85.30;;;;;;4847601;29;20131;-79
2022/10/07 04:28:15;;;;;;;0.30;0.30;;;8.60;85.30;;;;;;4847919;29;20434;-78
2022/10/07 04:30:42;;;;;;;0.38;0.30;;;8.50;85.40;;;;;;4844992;29;20046;-79
2022/10/07 04:33:09;;;;;;;0.98;0.40;;;8.60;85.40;;;;;;4845244;29;20056;-79
2022/10/07 04:46:18;;;;;;;0.17;0.17;;;8.50;85.40;;;;;;4731826;30;20059;-78
2022/10/07 04:48:44;;;;;;;1.35;0.30;;;8.60;85.30;;;;;;4705115;30;20057;-78
2022/10/07 04:51:11;;;;;;;0.40;0.25;;;8.60;85.30;;;;;;4700137;30;20049;-78
2022/10/07 04:53:38;;;;;;;0.38;0.30;;;8.60;85.30;;;;;;4715613;30;20563;-78
2022/10/07 04:56:04;;;;;;;0.55;0.30;;;8.60;85.20;;;;;;4715603;30;20097;-78
2022/10/07 04:58:31;;;;;;;0.40;0.20;;;8.70;85.30;;;;;;4713944;30;20107;-79
2022/10/07 05:00:58;;;;;;;0.30;0.30;;;8.60;85.30;;;;;;4716010;30;20045;-79
2022/10/07 05:03:27;;;;;;;0.30;0.22;;;8.60;85.90;;;;;;4716023;30;20161;-79
2022/10/07 05:05:55;;;;;;;0.50;0.30;;;8.60;85.40;;;;;;4715497;30;20113;-79
2022/10/07 05:08:23;;;;;;;0.32;0.20;;;8.60;85.30;;;;;;4715879;30;20051;-79
2022/10/07 05:10:58;;;;;;;0.52;0.20;;;8.60;85.50;;;;;;4731788;30;20135;-78
2022/10/07 05:13:25;;;;;;;0.45;0.28;;;8.60;85.60;;;;;;4763715;30;20040;-78
2022/10/07 05:15:55;;;;;;;0.60;0.40;;;8.40;85.50;;;;;;4774485;29;20039;-79
2022/10/07 05:18:22;;;;;;;0.32;0.22;;;8.50;85.70;;;;;;4786021;29;20051;-79
2022/10/07 05:20:49;;;;;;;0.60;0.40;;;8.60;85.80;;;;;;4841807;29;20068;-76
2022/10/07 05:23:16;;;;;;;0.63;0.40;;;8.50;85.80;;;;;;4860828;29;20519;-77
2022/10/07 05:25:43;;;;;;;0.30;0.30;;;8.60;85.80;;;;;;4860981;29;20034;-80
2022/10/07 05:28:10;;;;;;;0.57;0.30;;;8.60;85.60;;;;;;4861588;29;20045;-77
2022/10/07 05:30:37;;;;;;;0.70;0.45;;;8.70;85.80;;;;;;4859512;29;20034;-76
2022/10/07 05:33:03;;;;;;;0.88;0.38;;;8.70;85.40;;;;;;4859291;29;20050;-77
2022/10/07 05:35:30;;;;;;;0.20;0.20;;;8.70;85.40;;;;;;4860355;29;20044;-77
2022/10/07 05:37:56;;;;;;;0.55;0.25;;;8.80;85.30;;;;;;4861001;29;20034;-77
2022/10/07 05:40:21;;;;;;;0.40;0.30;;;8.90;85.40;;;;;;4859425;29;20041;-77
2022/10/07 05:42:48;;;;;;;0.35;0.20;;;8.80;85.30;;;;;;4860436;29;20053;-76
2022/10/07 05:45:14;;;;;;;0.47;0.35;;;8.70;85.30;;;;;;4865733;29;20101;-77
2022/10/07 05:47:40;;;;;;;0.47;0.40;;;8.80;85.40;;;;;;4866895;29;20412;-77
2022/10/07 05:50:07;;;;;;;1.00;0.40;;;8.70;85.40;;;;;;4860426;29;20116;-77
2022/10/07 05:52:32;;;;;;;0.40;0.40;;;8.70;85.50;;;;;;4858260;29;20046;-77
2022/10/07 05:54:58;;;;;;;0.47;0.30;;;8.80;85.70;;;;;;4860302;29;20396;-77
2022/10/07 05:57:24;;;;;;;0.70;0.43;;;8.90;85.60;;;;;;4860638;29;20090;-77
2022/10/07 05:59:50;;;;;;;1.08;0.40;;;9.00;85.40;;;;;;4860128;29;20033;-77
2022/10/07 06:02:17;;;;;;;1.08;0.47;;;9.10;85.10;;;;;;4858229;29;20049;-77
2022/10/07 06:04:47;;;;;;;0.28;0.28;;;9.30;85.00;;;;;;4863826;29;20045;-76
2022/10/07 06:07:14;;;;;;;1.77;0.45;;;9.30;84.70;;;;;;4897834;29;20040;-76
2022/10/07 06:15:08;;;;;;;1.13;0.30;;;9.40;84.50;;;;;;4846907;29;20397;-79
2022/10/07 06:17:34;;;;;;;0.77;0.32;;;9.40;84.40;;;;;;4859739;29;20438;-79
2022/10/07 06:20:02;;;;;;;0.57;0.40;;;9.50;84.50;;;;;;4844448;29;20038;-78
2022/10/07 06:22:28;;;;;;;0.98;0.43;;;9.50;84.50;;;;;;4860531;29;20041;-78
2022/10/07 06:24:57;;;;;;;0.50;0.40;;;9.60;84.40;;;;;;4859975;29;20224;-80
2022/10/07 06:27:23;;;;;;;2.40;0.60;;;9.60;84.30;;;;;;4858106;29;20094;-78
2022/10/07 06:29:49;;;;;;;1.55;0.50;;;9.70;84.20;;;;;;4857580;29;20049;-78
2022/10/07 06:32:15;;;;;;;2.58;0.40;;;9.80;84.20;;;;;;4843747;29;20132;-78
2022/10/07 06:34:41;;;;;;;0.82;0.40;;;9.80;84.10;;;;;;4860042;29;20126;-79
2022/10/07 06:37:07;;;;;;;1.10;0.63;;;9.80;84.20;;;;;;4860360;29;20079;-80
2022/10/07 06:39:33;;;;;;;0.75;0.50;;;9.80;84.20;;;;;;4860216;29;20061;-79
2022/10/07 06:41:58;;;;;;;1.38;0.50;;;9.90;84.10;;;;;;4860743;29;20109;-79
2022/10/07 06:44:25;;;;;;;1.15;0.55;;;10.00;84.70;;;;;;4858322;29;20409;-79
2022/10/07 06:46:51;;;;;;;0.95;0.50;;;10.00;84.00;;;;;;4857692;29;20069;-79
2022/10/07 06:49:17;;;;;;;0.75;0.40;;;10.00;83.90;;;;;;4859626;29;20520;-80
2022/10/07 06:51:43;;;;;;;0.55;0.40;;;10.10;83.90;;;;;;4858280;29;20085;-80
2022/10/07 06:54:08;;;;;;;0.47;0.47;;;10.10;83.80;;;;;;4857573;29;20061;-80
2022/10/07 06:56:34;;;;;;;0.55;0.52;;;10.10;83.70;;;;;;4859664;29;20081;-80
2022/10/07 06:59:02;;;;;;;1.70;0.60;;;10.20;83.70;;;;;;4859731;29;20041;-80
2022/10/07 07:01:27;;;;;;;1.67;0.73;;;10.20;83.70;;;;;;4859555;29;20885;-80
2022/10/07 07:03:53;;;;;;;0.60;0.40;;;10.20;83.70;;;;;;4859089;29;20065;-80
2022/10/07 07:06:19;;;;;;;1.02;0.50;;;10.30;83.70;;;;;;4859752;29;20128;-79
2022/10/07 07:08:46;;;;;;;1.20;0.50;;;10.30;83.70;;;;;;4859229;29;20124;-78
2022/10/07 07:13:49;;;;;;;0.98;0.50;;;10.30;83.80;;;;;;4861143;29;20042;-75
2022/10/07 07:16:16;;;;;;;2.70;0.65;;;10.40;83.80;;;;;;4858359;29;20042;-74
2022/10/07 07:18:42;;;;;;;1.48;0.52;;;10.40;83.70;;;;;;4859145;29;20117;-76
2022/10/07 07:21:08;;;;;;;3.28;0.75;;;10.40;83.60;;;;;;4859007;29;20109;-77
2022/10/07 07:23:33;;;;;;;4.07;0.73;;;10.50;83.60;;;;;;4857738;29;20042;-76
2022/10/07 07:26:00;;;;;;;1.75;0.80;;;10.60;83.50;;;;;;4858151;29;20045;-77
2022/10/07 07:28:25;;;;;;;1.98;0.60;;;10.70;83.50;;;;;;4856950;29;20056;-76
2022/10/07 07:30:51;;;;;;;1.30;0.80;;;10.70;83.30;;;;;;4859225;29;20489;-76
2022/10/07 07:33:17;;;;;;;2.00;0.63;;;10.90;83.30;;;;;;4858712;29;20478;-77
2022/10/07 07:35:43;;;;;;;1.38;0.80;;;10.80;83.10;;;;;;4859328;29;20040;-77
2022/10/07 07:38:09;;;;;;;1.42;0.68;;;10.90;83.10;;;;;;4859073;29;20033;-77
2022/10/07 07:40:37;;;;;;;1.35;0.70;;;11.00;83.00;;;;;;4858722;29;20394;-77
2022/10/07 07:43:04;;;;;;;2.35;0.63;;;11.10;83.00;;;;;;4857221;29;20037;-77
2022/10/07 07:45:31;;;;;;;1.80;0.80;;;11.00;82.90;;;;;;4859034;29;20889;-76
2022/10/07 07:48:11;;;;;;;1.17;0.60;;;11.10;82.90;;;;;;4858707;29;20038;-77
2022/10/07 07:50:39;;;;;;;1.70;0.70;;;11.10;82.90;;;;;;4858995;29;20045;-77
2022/10/07 07:53:05;;;;;;;1.58;0.60;;;11.10;82.90;;;;;;4857983;29;20050;-76
2022/10/07 07:55:31;;;;;;;1.33;0.65;;;11.10;83.00;;;;;;4856877;29;20090;-74
2022/10/07 07:57:57;;;;;;;1.77;0.80;;;11.20;83.10;;;;;;4859092;29;20094;-74
2022/10/07 08:00:22;;;;;;;1.35;0.70;;;11.10;83.20;;;;;;4858501;29;20121;-74
2022/10/07 08:02:48;;;;;;;1.92;0.77;;;11.10;83.20;;;;;;4857917;29;20137;-74
2022/10/07 08:05:14;;;;;;;2.10;0.82;;;11.10;83.20;;;;;;4857024;29;20053;-75
2022/10/07 08:07:40;;;;;;;2.47;0.90;;;11.30;83.30;;;;;;4858564;29;20041;-77
2022/10/07 08:10:06;;;;;;;2.05;0.50;;;11.40;83.10;;;;;;4857063;29;20106;-75
2022/10/07 08:12:32;;;;;;;1.67;0.60;;;11.50;82.80;;;;;;4856062;29;20052;-77
2022/10/07 08:14:58;;;;;;;1.02;0.57;;;11.60;82.60;;;;;;4858657;29;20045;-77
2022/10/07 08:17:23;;;;;;;0.50;0.50;;;11.80;82.50;;;;;;4845221;29;20463;-77
2022/10/07 08:19:49;;;;;;;2.03;0.82;;;11.80;82.30;;;;;;4878832;29;20036;-77
2022/10/07 08:22:16;;;;;;;1.65;0.82;;;11.90;82.20;;;;;;4896117;29;20064;-77
2022/10/07 08:24:42;;;;;;;1.63;0.77;;;12.00;82.10;;;;;;4878521;29;20492;-77
2022/10/07 08:27:08;;;;;;;1.42;0.70;;;12.10;82.00;;;;;;4896626;29;20032;-77
2022/10/07 08:29:34;;;;;;;1.67;0.70;;;12.10;81.90;;;;;;4898658;29;20041;-76
2022/10/07 08:31:59;;;;;;;1.48;0.70;;;12.30;81.80;;;;;;4898917;29;20143;-77
2022/10/07 08:34:25;;;;;;;2.33;0.88;;;12.40;81.70;;;;;;4881814;29;20074;-75
2022/10/07 08:36:51;;;;;;;2.85;0.80;;;12.60;81.50;;;;;;4898764;29;20032;-77
2022/10/07 08:39:17;;;;;;;2.05;0.70;;;12.50;81.10;;;;;;4881642;29;20416;-77
2022/10/07 08:41:51;;;;;;;1.40;0.60;;;12.70;81.10;;;;;;4898594;29;20135;-76
2022/10/07 08:44:24;;;;;;;2.03;0.90;;;12.70;81.10;;;;;;4898617;29;20119;-76
2022/10/07 08:46:57;;;;;;;1.83;0.70;;;12.70;81.10;;;;;;4866702;29;20064;-75
2022/10/07 08:49:35;;;;;;;3.00;0.70;;;12.80;81.10;;;;;;4875812;29;20037;-74
2022/10/07 08:52:24;;;;;;;1.42;0.88;;;12.90;81.10;;;;;;4868988;29;20051;-74
2022/10/07 08:54:50;;;;;;;2.67;1.10;;;12.90;81.00;;;;;;4898324;29;20052;-76
2022/10/07 08:57:32;;;;;;;1.42;0.90;;;13.10;80.90;;;;;;4881608;29;20025;-74
2022/10/07 09:00:02;;;;;;;1.80;0.70;;;13.10;81.40;;;;;;4883177;29;20041;-77
2022/10/07 09:02:41;;;;;;;1.15;0.70;;;13.20;80.60;;;;;;4898794;29;20641;-76
2022/10/07 09:05:27;;;;;;;1.70;0.60;;;13.20;80.60;;;;;;4881003;29;20046;-76
2022/10/07 09:07:59;;;;;;;0.82;0.52;;;13.30;80.50;;;;;;4898636;29;20657;-74
2022/10/07 09:10:38;;;;;;;2.10;0.55;;;13.40;80.40;;;;;;4898671;29;20071;-76
2022/10/07 09:13:14;;;;;;;2.08;0.82;;;13.50;80.30;;;;;;4896525;29;20048;-76
2022/10/07 09:16:01;;;;;;;1.35;0.68;;;13.60;80.20;;;;;;4897940;29;20036;-76
2022/10/07 09:18:49;;;;;;;1.17;0.52;;;13.70;80.20;;;;;;4881607;29;20040;-77
2022/10/07 09:21:22;;;;;;;2.17;0.50;;;13.80;80.00;;;;;;4898066;29;20120;-76
2022/10/07 09:23:54;;;;;;;1.75;0.60;;;13.90;79.90;;;;;;4895632;29;20036;-77
2022/10/07 09:26:20;;;;;;;1.90;0.52;;;14.10;79.60;;;;;;4861312;29;20044;-76
2022/10/07 09:28:46;;;;;;;1.70;0.73;;;14.20;79.20;;;;;;4861466;29;20042;-76
2022/10/07 09:31:14;;;;;;;1.52;0.52;;;14.40;79.10;;;;;;4860430;29;20117;-76
2022/10/07 09:33:43;;;;;;;2.88;0.90;;;14.40;78.80;;;;;;4859252;29;20053;-76
2022/10/07 09:36:11;;;;;;;2.45;0.90;;;14.50;78.70;;;;;;4860675;29;20147;-76
2022/10/07 09:38:42;;;;;;;1.80;0.82;;;14.50;78.60;;;;;;4858929;29;20512;-76
2022/10/07 09:41:21;;;;;;;0.83;0.60;;;14.40;78.70;;;;;;4860413;29;20126;-76
2022/10/07 09:44:24;;;;;;;1.30;0.40;;;14.50;78.90;;;;;;4860184;29;20061;-76
2022/10/07 09:46:56;;;;;;;1.10;0.40;;;14.60;79.00;;;;;;4876396;29;20030;-74
2022/10/07 09:49:38;;;;;;;1.20;0.60;;;14.60;79.00;;;;;;4844137;29;20519;-77
2022/10/07 09:52:17;;;;;;;1.08;0.63;;;14.70;79.10;;;;;;4861987;29;20108;-74
2022/10/07 09:54:46;;;;;;;1.75;0.80;;;14.70;78.90;;;;;;4860412;29;20048;-76
2022/10/07 09:57:30;;;;;;;2.72;0.70;;;14.80;78.90;;;;;;4858759;29;20513;-76
2022/10/07 10:00:16;;;;;;;1.67;0.60;;;14.90;78.80;;;;;;4859187;29;20042;-76
2022/10/07 10:02:48;;;;;;;1.77;0.60;;;14.90;78.80;;;;;;4860017;29;20033;-76
2022/10/07 10:05:30;;;;;;;1.23;0.47;;;15.00;78.70;;;;;;4860198;29;20208;-76
2022/10/07 10:08:00;;;;;;;0.65;0.40;;;15.00;78.70;;;;;;4860196;29;20120;-76
2022/10/07 10:10:29;;;;;;;1.50;0.70;;;15.10;78.60;;;;;;4859420;29;20437;-75
2022/10/07 10:12:57;;;;;;;2.33;0.90;;;15.10;78.40;;;;;;4863717;29;20046;-75
2022/10/07 10:15:28;;;;;;;2.38;0.60;;;15.30;78.50;;;;;;4897685;29;20060;-76
2022/10/07 10:17:56;;;;;;;;;;;15.30;78.30;;;;;;4897713;29;20040;-75
2022/10/07 10:20:27;;;;;;;2.10;0.75;;;15.30;78.30;;;;;;4860804;29;19912;-76
2022/10/07 10:22:54;;;;;;;2.22;0.52;;;15.30;78.20;;;;;;4858560;29;20097;-76
2022/10/07 10:28:41;;;;;;;1.83;0.45;;;15.50;78.10;;;;;;4860416;29;20037;-76
2022/10/07 10:31:28;;;;;;;1.40;0.60;;;15.60;77.90;;;;;;4858543;29;20046;-76
2022/10/07 10:34:23;;;;;;;4.75;0.90;;;15.70;77.80;;;;;;4859451;29;20595;-76
2022/10/07 10:37:02;;;;;;;1.10;0.50;;;15.70;77.70;;;;;;4859268;29;20177;-76
2022/10/07 10:39:46;;;;;;;1.52;0.63;;;15.80;77.70;;;;;;4863108;29;20032;-75
2022/10/07 10:42:18;;;;;;;1.23;0.50;;;15.80;77.40;;;;;;4896417;29;20040;-76
2022/10/07 10:45:02;;;;;;;1.40;0.50;;;15.90;77.40;;;;;;4878625;29;20045;-76
2022/10/07 10:48:04;;;;;;;1.42;0.63;;;16.00;77.40;;;;;;4896362;29;20043;-76
2022/10/07 10:50:51;;;;;;;1.33;0.52;;;16.10;77.20;;;;;;4895646;29;20052;-76
2022/10/07 10:53:44;;;;;;;1.95;0.40;;;16.20;77.00;;;;;;4880066;29;20060;-76
2022/10/07 10:56:27;;;;;;;1.35;0.47;;;16.30;76.90;;;;;;4894947;29;20044;-75
2022/10/07 10:59:14;;;;;;;0.77;0.43;;;16.30;76.80;;;;;;4896207;29;20065;-75
2022/10/07 11:01:42;;;;;;;2.08;0.47;;;16.40;76.80;;;;;;4896021;29;20103;-75
2022/10/07 11:04:18;;;;;;;1.83;0.50;;;16.30;76.80;;;;;;4894743;29;20045;-75
2022/10/07 11:06:50;;;;;;;0.82;0.43;;;16.30;76.80;;;;;;4866946;29;20509;-76
2022/10/07 11:09:35;;;;;;;3.78;0.70;;;16.30;76.90;;;;;;4860311;29;20061;-75
2022/10/07 11:12:08;;;;;;;2.70;0.70;;;16.40;76.80;;;;;;4857236;29;20049;-75
2022/10/07 11:14:44;;;;;;;1.67;0.80;;;16.40;76.50;;;;;;4859082;29;20576;-75
2022/10/07 11:17:12;;;;;;;2.97;1.10;;;16.50;76.40;;;;;;4845320;29;20380;-76
2022/10/07 11:19:47;;;;;;;1.65;0.60;;;16.50;76.20;;;;;;4857788;29;20037;-75
2022/10/07 11:22:16;;;;;;;2.17;0.75;;;16.40;76.00;;;;;;4842743;29;20042;-74
2022/10/07 11:24:49;;;;;;;2.45;0.70;;;16.60;76.00;;;;;;4859129;29;20128;-75
2022/10/07 11:27:22;;;;;;;2.63;0.90;;;16.60;75.80;;;;;;4860653;29;20085;-76
2022/10/07 11:30:00;;;;;;;2.17;0.70;;;16.60;75.70;;;;;;4844100;29;20392;-76
2022/10/07 11:32:42;;;;;;;1.50;0.60;;;16.70;75.70;;;;;;4858852;29;20053;-75
2022/10/07 11:35:33;;;;;;;1.65;0.63;;;16.70;75.70;;;;;;4858835;29;20041;-75
2022/10/07 11:38:19;;;;;;;3.15;0.93;;;16.80;75.60;;;;;;4857673;29;20124;-75
2022/10/07 11:40:57;;;;;;;2.92;0.65;;;16.80;75.30;;;;;;4858809;29;20065;-75
2022/10/07 11:43:33;;;;;;;1.58;0.90;;;16.90;75.10;;;;;;4858740;29;20042;-75
2022/10/07 11:46:05;;;;;;;3.78;0.80;;;17.00;74.80;;;;;;4859175;29;20049;-78
2022/10/07 11:48:40;;;;;;;1.17;0.75;;;17.00;74.60;;;;;;4858709;29;20033;-75
2022/10/07 11:51:08;;;;;;;1.77;0.82;;;17.10;74.60;;;;;;4860135;29;20046;-76
2022/10/07 11:53:38;;;;;;;0.73;0.40;;;17.10;74.40;;;;;;4858920;29;20342;-79
2022/10/07 11:56:16;;;;;;;0.65;0.52;;;17.20;74.30;;;;;;4863515;29;20052;-74
2022/10/07 11:58:44;;;;;;;5.03;1.00;;;17.30;74.10;;;;;;4879018;29;20071;-75
2022/10/07 12:01:38;;;;;;;0.85;0.50;;;17.30;73.90;;;;;;4860769;29;20057;-75
2022/10/07 12:04:37;;;;;;;2.03;0.70;;;17.40;73.80;;;;;;4861599;29;20038;-75
2022/10/07 12:07:35;;;;;;;1.67;0.70;;;17.50;73.50;;;;;;4863302;29;20485;-75
2022/10/07 12:10:22;;;;;;;2.85;0.88;;;17.60;73.40;;;;;;4898742;29;20078;-75
2022/10/07 12:12:50;;;;;;;2.85;0.95;;;17.60;73.20;;;;;;4898810;29;20049;-74
2022/10/07 12:15:34;;;;;;;2.15;0.70;;;17.60;73.00;;;;;;4898734;29;20028;-74
2022/10/07 12:18:25;;;;;;;2.55;0.90;;;17.60;72.80;;;;;;4898830;29;20041;-74
2022/10/07 12:21:02;;;;;;;1.90;0.90;;;17.70;72.60;;;;;;4882015;29;20040;-74
2022/10/07 12:23:37;;;;;;;2.03;0.88;;;17.70;72.40;;;;;;4869467;29;20049;-76
2022/10/07 12:26:24;;;;;;;2.30;0.70;;;17.80;72.20;;;;;;4845525;29;20038;-74
2022/10/07 12:28:51;;;;;;;2.45;0.70;;;17.90;72.20;;;;;;4861476;29;20120;-72
2022/10/07 12:31:45;;;;;;;1.13;0.52;;;18.00;72.00;;;;;;4861676;29;20046;-73
2022/10/07 12:34:26;;;;;;;2.97;0.73;;;18.00;71.60;;;;;;4848401;29;20056;-75
2022/10/07 12:36:52;;;;;;;2.40;0.88;;;18.00;71.30;;;;;;4860297;29;20084;-75
2022/10/07 12:39:38;;;;;;;2.78;0.75;;;18.00;71.40;;;;;;4860074;29;20069;-75
2022/10/07 12:42:07;;;;;;;2.40;0.77;;;18.00;71.50;;;;;;4860188;29;20041;-75
2022/10/07 12:44:42;;;;;;;1.17;0.52;;;18.20;71.40;;;;;;4861069;29;20457;-74
2022/10/07 12:47:21;;;;;;;1.77;0.77;;;18.10;71.20;;;;;;4860393;29;20481;-75
2022/10/07 12:49:57;;;;;;;2.35;0.95;;;18.20;71.10;;;;;;4859937;29;20044;-74
2022/10/07 12:52:46;;;;;;;2.80;1.02;;;18.20;71.00;;;;;;4861771;29;20057;-74
2022/10/07 12:55:36;;;;;;;2.45;0.88;;;18.10;70.60;;;;;;4859080;29;20036;-80
2022/10/07 13:01:31;;;;;;;2.03;0.80;;;18.20;70.30;;;;;;4862369;29;20030;-78
2022/10/07 13:04:37;;;;;;;2.83;0.90;;;18.30;70.10;;;;;;4859915;29;20112;-77
2022/10/07 13:07:37;;;;;;;2.83;0.70;;;18.20;70.00;;;;;;4847857;29;20392;-77
2022/10/07 13:10:24;;;;;;;2.10;0.75;;;18.20;69.80;;;;;;4862001;29;20060;-76
2022/10/07 13:12:57;;;;;;;2.78;0.63;;;18.20;69.80;;;;;;4858671;29;20057;-76
2022/10/07 13:15:40;;;;;;;1.60;0.47;;;18.30;69.80;;;;;;4859804;29;20049;-77
2022/10/07 13:18:19;;;;;;;0.73;0.50;;;18.30;69.80;;;;;;4859533;29;20133;-77
2022/10/07 13:21:24;;;;;;;1.17;0.50;;;18.20;69.90;;;;;;4844039;29;20032;-78
2022/10/07 13:23:52;;;;;;;1.27;0.47;;;18.30;69.90;;;;;;4848238;29;20572;-79
2022/10/07 13:26:21;;;;;;;1.08;0.45;;;18.30;69.80;;;;;;4861302;29;20052;-75
2022/10/07 13:28:50;;;;;;;1.95;0.50;;;18.30;69.70;;;;;;4861591;29;20044;-78
2022/10/07 13:31:21;;;;;;;1.35;0.68;;;18.30;69.70;;;;;;4861193;29;20521;-74
2022/10/07 13:33:48;;;;;;;0.88;0.60;;;18.40;69.60;;;;;;4861476;29;20037;-74
2022/10/07 13:36:24;;;;;;;2.05;0.45;;;18.50;69.70;;;;;;4861249;29;20036;-74
2022/10/07 13:39:08;;;;;;;1.05;0.57;;;18.40;69.70;;;;;;4861064;29;20056;-75
2022/10/07 13:41:35;;;;;;;2.22;0.73;;;18.40;69.60;;;;;;4860557;29;20089;-74
2022/10/07 13:44:04;;;;;;;1.25;0.52;;;18.30;69.60;;;;;;4861122;29;20061;-74